sensor_id;sensor_type;location;lat;lon;timestamp;P1;durP1;ratioP1;P2;durP2;ratioP2
63581;SDS011;49727;51.078;17.066;2023-03-01T00:02:55;40.97;;;22.90;;
63581;SDS011;49727;51.078;17.066;2023-03-01T00:17:55;34.05;;;21.35;;
63581;SDS011;49727;51.078;17.066;2023-03-01T00:32:57;41.55;;;22.70;;
63581;SDS011;49727;51.078;17.066;2023-03-01T00:47:57;35.83;;;19.33;;
63581;SDS011;49727;51.078;17.066;2023-03-01T01:02:58;35.78;;;21.25;;
63581;SDS011;49727;51.078;17.066;2023-03-01T01:17:58;35.80;;;19.52;;
63581;SDS011;49727;51.078;17.066;2023-03-01T01:32:58;43.67;;;19.10;;
63581;SDS011;49727;51.078;17.066;2023-03-01T01:48:10;41.08;;;21.70;;
63581;SDS011;49727;51.078;17.066;2023-03-01T02:03:15;46.97;;;21.67;;
63581;SDS011;49727;51.078;17.066;2023-03-01T02:18:21;39.55;;;21.85;;
63581;SDS011;49727;51.078;17.066;2023-03-01T02:33:23;33.85;;;19.17;;
63581;SDS011;49727;51.078;17.066;2023-03-01T02:48:25;37.90;;;19.88;;
63581;SDS011;49727;51.078;17.066;2023-03-01T03:03:26;44.38;;;22.65;;
63581;SDS011;49727;51.078;17.066;2023-03-01T03:18:26;42.35;;;21.35;;
63581;SDS011;49727;51.078;17.066;2023-03-01T03:33:27;30.13;;;18.95;;
63581;SDS011;49727;51.078;17.066;2023-03-01T03:48:27;32.28;;;18.83;;
63581;SDS011;49727;51.078;17.066;2023-03-01T04:03:28;51.80;;;24.15;;
63581;SDS011;49727;51.078;17.066;2023-03-01T04:18:29;40.33;;;20.75;;
63581;SDS011;49727;51.078;17.066;2023-03-01T04:33:30;45.50;;;21.90;;
63581;SDS011;49727;51.078;17.066;2023-03-01T04:48:31;41.42;;;20.77;;
63581;SDS011;49727;51.078;17.066;2023-03-01T05:03:32;35.53;;;22.10;;
63581;SDS011;49727;51.078;17.066;2023-03-01T05:18:33;36.10;;;19.27;;
63581;SDS011;49727;51.078;17.066;2023-03-01T05:33:33;37.00;;;22.33;;
63581;SDS011;49727;51.078;17.066;2023-03-01T05:48:34;64.95;;;22.65;;
63581;SDS011;49727;51.078;17.066;2023-03-01T06:03:34;46.47;;;22.20;;
63581;SDS011;49727;51.078;17.066;2023-03-01T06:18:35;39.28;;;24.25;;
63581;SDS011;49727;51.078;17.066;2023-03-01T06:33:36;51.55;;;24.70;;
63581;SDS011;49727;51.078;17.066;2023-03-01T06:48:37;45.55;;;25.08;;
63581;SDS011;49727;51.078;17.066;2023-03-01T07:03:37;48.03;;;25.58;;
63581;SDS011;49727;51.078;17.066;2023-03-01T07:18:38;53.55;;;28.63;;
63581;SDS011;49727;51.078;17.066;2023-03-01T07:33:38;54.28;;;26.58;;
63581;SDS011;49727;51.078;17.066;2023-03-01T07:48:38;50.58;;;27.48;;
63581;SDS011;49727;51.078;17.066;2023-03-01T08:03:39;55.50;;;29.08;;
63581;SDS011;49727;51.078;17.066;2023-03-01T08:18:40;43.03;;;24.10;;
63581;SDS011;49727;51.078;17.066;2023-03-01T08:33:41;37.78;;;21.33;;
63581;SDS011;49727;51.078;17.066;2023-03-01T08:48:42;26.92;;;17.70;;
63581;SDS011;49727;51.078;17.066;2023-03-01T09:03:43;36.63;;;18.38;;
63581;SDS011;49727;51.078;17.066;2023-03-01T09:18:44;31.05;;;18.73;;
63581;SDS011;49727;51.078;17.066;2023-03-01T09:33:49;21.97;;;15.20;;
63581;SDS011;49727;51.078;17.066;2023-03-01T09:48:54;23.53;;;14.80;;
63581;SDS011;49727;51.078;17.066;2023-03-01T10:19:54;22.23;;;15.93;;
63581;SDS011;49727;51.078;17.066;2023-03-01T10:34:36;22.47;;;15.60;;
63581;SDS011;49727;51.078;17.066;2023-03-01T10:49:36;19.75;;;13.98;;
63581;SDS011;49727;51.078;17.066;2023-03-01T11:04:37;15.07;;;12.20;;
63581;SDS011;49727;51.078;17.066;2023-03-01T11:19:38;16.08;;;12.82;;
63581;SDS011;49727;51.078;17.066;2023-03-01T11:34:40;18.15;;;12.63;;
63581;SDS011;49727;51.078;17.066;2023-03-01T12:05:42;15.20;;;8.80;;
63581;SDS011;49727;51.078;17.066;2023-03-01T12:20:50;10.00;;;8.57;;
63581;SDS011;49727;51.078;17.066;2023-03-01T12:36:18;18.83;;;12.23;;
63581;SDS011;49727;51.078;17.066;2023-03-01T12:51:39;12.53;;;9.07;;
63581;SDS011;49727;51.078;17.066;2023-03-01T13:22:25;10.80;;;7.67;;
63581;SDS011;49727;51.078;17.066;2023-03-01T13:37:32;8.77;;;7.37;;
63581;SDS011;49727;51.078;17.066;2023-03-01T13:52:38;11.47;;;7.03;;
63581;SDS011;49727;51.078;17.066;2023-03-01T14:07:39;13.40;;;9.20;;
63581;SDS011;49727;51.078;17.066;2023-03-01T14:22:41;11.37;;;8.20;;
63581;SDS011;49727;51.078;17.066;2023-03-01T14:37:43;12.10;;;9.27;;
63581;SDS011;49727;51.078;17.066;2023-03-01T14:52:44;16.10;;;9.35;;
63581;SDS011;49727;51.078;17.066;2023-03-01T15:07:47;14.17;;;11.10;;
63581;SDS011;49727;51.078;17.066;2023-03-01T15:22:48;13.60;;;10.60;;
63581;SDS011;49727;51.078;17.066;2023-03-01T15:37:49;13.07;;;10.07;;
63581;SDS011;49727;51.078;17.066;2023-03-01T15:52:49;14.25;;;10.48;;
63581;SDS011;49727;51.078;17.066;2023-03-01T16:07:51;18.90;;;10.70;;
63581;SDS011;49727;51.078;17.066;2023-03-01T16:22:52;18.27;;;10.57;;
63581;SDS011;49727;51.078;17.066;2023-03-01T16:37:52;19.65;;;10.52;;
63581;SDS011;49727;51.078;17.066;2023-03-01T16:52:53;24.58;;;11.40;;
63581;SDS011;49727;51.078;17.066;2023-03-01T17:07:55;20.00;;;11.27;;
63581;SDS011;49727;51.078;17.066;2023-03-01T17:22:57;24.65;;;11.63;;
63581;SDS011;49727;51.078;17.066;2023-03-01T17:37:57;35.28;;;13.98;;
63581;SDS011;49727;51.078;17.066;2023-03-01T17:52:58;36.00;;;13.75;;
63581;SDS011;49727;51.078;17.066;2023-03-01T18:07:58;33.00;;;15.40;;
63581;SDS011;49727;51.078;17.066;2023-03-01T18:22:59;36.72;;;17.17;;
63581;SDS011;49727;51.078;17.066;2023-03-01T18:37:59;46.20;;;21.27;;
63581;SDS011;49727;51.078;17.066;2023-03-01T18:52:59;43.20;;;19.00;;
63581;SDS011;49727;51.078;17.066;2023-03-01T19:08:00;39.47;;;21.95;;
63581;SDS011;49727;51.078;17.066;2023-03-01T19:23:00;41.08;;;22.35;;
63581;SDS011;49727;51.078;17.066;2023-03-01T19:38:01;40.70;;;20.42;;
63581;SDS011;49727;51.078;17.066;2023-03-01T19:53:01;30.80;;;17.80;;
63581;SDS011;49727;51.078;17.066;2023-03-01T20:08:02;40.70;;;21.52;;
63581;SDS011;49727;51.078;17.066;2023-03-01T20:23:03;41.25;;;20.85;;
63581;SDS011;49727;51.078;17.066;2023-03-01T20:38:04;44.72;;;22.23;;
63581;SDS011;49727;51.078;17.066;2023-03-01T20:53:04;43.33;;;21.30;;
63581;SDS011;49727;51.078;17.066;2023-03-01T21:08:05;39.22;;;19.08;;
63581;SDS011;49727;51.078;17.066;2023-03-01T21:23:05;38.85;;;20.33;;
63581;SDS011;49727;51.078;17.066;2023-03-01T21:38:05;40.83;;;20.23;;
63581;SDS011;49727;51.078;17.066;2023-03-01T21:53:06;42.65;;;23.50;;
63581;SDS011;49727;51.078;17.066;2023-03-01T22:08:06;47.17;;;22.17;;
63581;SDS011;49727;51.078;17.066;2023-03-01T22:23:07;60.72;;;27.73;;
63581;SDS011;49727;51.078;17.066;2023-03-01T22:38:08;50.03;;;23.92;;
63581;SDS011;49727;51.078;17.066;2023-03-01T22:53:08;54.95;;;24.40;;
63581;SDS011;49727;51.078;17.066;2023-03-01T23:08:09;48.40;;;23.40;;
63581;SDS011;49727;51.078;17.066;2023-03-01T23:23:09;49.45;;;23.25;;
63581;SDS011;49727;51.078;17.066;2023-03-01T23:38:09;50.03;;;24.92;;
63581;SDS011;49727;51.078;17.066;2023-03-01T23:53:15;59.10;;;26.50;;
